createdAt,value
2019-05-10T00:02:14.181Z,13.66
2019-05-10T00:05:00.643Z,13.71
2019-05-10T00:07:47.630Z,13.62
2019-05-10T00:10:15.766Z,13.84
2019-05-10T00:13:05.370Z,13.75
2019-05-10T00:15:35.010Z,13.81
2019-05-10T00:18:03.669Z,13.65
2019-05-10T00:20:32.339Z,13.79
2019-05-10T00:23:00.874Z,13.77
2019-05-10T00:25:29.352Z,13.79
2019-05-10T00:27:57.842Z,13.85
2019-05-10T00:30:26.405Z,13.73
2019-05-10T00:32:55.097Z,13.55
2019-05-10T00:35:23.813Z,13.38
2019-05-10T00:37:52.495Z,13.37
2019-05-10T00:40:21.298Z,13.55
2019-05-10T00:42:50.014Z,13.56
2019-05-10T00:45:18.600Z,13.50
2019-05-10T00:47:47.295Z,13.51
2019-05-10T00:50:15.777Z,13.53
2019-05-10T00:52:44.388Z,13.57
2019-05-10T00:55:18.860Z,13.39
2019-05-10T00:57:43.508Z,13.39
2019-05-10T01:00:12.469Z,13.21
2019-05-10T01:02:41.104Z,13.41
2019-05-10T01:05:09.752Z,13.29
2019-05-10T01:07:38.310Z,13.38
2019-05-10T01:10:07.123Z,13.40
2019-05-10T01:12:35.617Z,13.40
2019-05-10T01:15:04.642Z,13.41
2019-05-10T01:17:33.228Z,13.35
2019-05-10T01:20:02.260Z,13.30
2019-05-10T01:22:31.028Z,13.45
2019-05-10T01:24:59.742Z,13.44
2019-05-10T01:27:28.526Z,13.34
2019-05-10T01:29:56.991Z,13.25
2019-05-10T01:32:25.582Z,13.23
2019-05-10T01:34:54.199Z,13.35
2019-05-10T01:37:22.695Z,13.39
2019-05-10T01:39:51.420Z,13.44
2019-05-10T01:42:20.009Z,13.25
2019-05-10T01:44:48.529Z,13.17
2019-05-10T01:47:17.010Z,13.16
2019-05-10T01:49:45.613Z,12.98
2019-05-10T01:52:14.608Z,13.19
2019-05-10T01:54:43.313Z,13.12
2019-05-10T01:57:11.931Z,13.16
2019-05-10T01:59:40.539Z,13.24
2019-05-10T02:02:09.144Z,13.22
2019-05-10T02:04:37.712Z,13.05
2019-05-10T02:07:06.617Z,13.05
2019-05-10T02:09:35.220Z,13.25
2019-05-10T02:12:03.829Z,13.28
2019-05-10T02:14:32.323Z,13.14
2019-05-10T02:17:00.917Z,13.23
2019-05-10T02:19:29.369Z,13.18
2019-05-10T02:21:57.981Z,13.09
2019-05-10T02:24:26.605Z,13.33
2019-05-10T02:26:55.324Z,13.23
2019-05-10T02:29:23.920Z,13.33
2019-05-10T02:31:52.513Z,13.11
2019-05-10T02:34:21.005Z,13.20
2019-05-10T02:36:49.612Z,12.96
2019-05-10T02:39:18.212Z,13.10
2019-05-10T02:41:46.726Z,13.21
2019-05-10T02:44:15.304Z,13.12
2019-05-10T02:46:43.877Z,12.98
2019-05-10T02:49:12.358Z,13.09
2019-05-10T02:51:40.931Z,12.97
2019-05-10T02:54:09.529Z,12.97
2019-05-10T02:56:38.747Z,13.16
2019-05-10T02:59:09.912Z,12.99
2019-05-10T03:01:43.575Z,12.98
2019-05-10T03:04:13.475Z,13.10
2019-05-10T03:06:43.677Z,13.10
2019-05-10T03:09:12.213Z,13.09
2019-05-10T03:11:48.617Z,13.29
2019-05-10T03:14:18.323Z,13.31
2019-05-10T03:16:49.595Z,13.23
2019-05-10T03:19:19.549Z,13.29
2019-05-10T03:21:54.126Z,13.29
2019-05-10T03:24:27.592Z,13.34
2019-05-10T03:26:53.340Z,13.20
2019-05-10T03:29:21.922Z,13.24
2019-05-10T03:31:50.533Z,13.30
2019-05-10T03:34:19.115Z,13.25
2019-05-10T03:36:47.914Z,13.24
2019-05-10T03:39:16.611Z,13.22
2019-05-10T03:41:45.299Z,13.18
2019-05-10T03:44:13.881Z,13.19
2019-05-10T03:46:42.470Z,13.16
2019-05-10T03:49:11.156Z,13.03
2019-05-10T03:51:39.637Z,12.97
2019-05-10T03:54:08.231Z,12.90
2019-05-10T03:56:36.942Z,12.97
2019-05-10T03:59:05.533Z,13.15
2019-05-10T04:01:34.006Z,13.19
2019-05-10T04:04:02.726Z,13.07
2019-05-10T04:06:31.403Z,12.79
2019-05-10T04:08:59.980Z,12.80
2019-05-10T04:11:28.575Z,12.95
2019-05-10T04:13:57.243Z,13.01
2019-05-10T04:16:25.825Z,13.13
2019-05-10T04:18:54.407Z,13.21
2019-05-10T04:21:22.994Z,13.18
2019-05-10T04:23:51.614Z,13.03
2019-05-10T04:26:20.180Z,13.05
2019-05-10T04:28:48.804Z,13.14
2019-05-10T04:31:17.412Z,13.20
2019-05-10T04:33:46.035Z,13.16
2019-05-10T04:36:14.625Z,13.10
2019-05-10T04:38:43.363Z,13.20
2019-05-10T04:41:11.967Z,13.36
2019-05-10T04:43:40.455Z,13.32
2019-05-10T04:46:09.016Z,13.33
2019-05-10T04:48:37.701Z,13.22
2019-05-10T04:51:07.438Z,13.30
2019-05-10T04:53:35.972Z,13.40
2019-05-10T04:56:04.581Z,13.51
2019-05-10T04:58:33.076Z,13.47
2019-05-10T05:01:01.579Z,13.44
2019-05-10T05:03:30.269Z,13.67
2019-05-10T05:05:58.850Z,13.79
2019-05-10T05:08:27.442Z,13.69
2019-05-10T05:10:56.167Z,13.67
2019-05-10T05:13:24.697Z,13.72
2019-05-10T05:15:53.320Z,13.80
2019-05-10T05:18:21.996Z,13.72
2019-05-10T05:20:50.547Z,13.86
2019-05-10T05:23:19.084Z,13.91
2019-05-10T05:25:47.696Z,13.99
2019-05-10T05:28:18.427Z,14.00
2019-05-10T05:30:46.679Z,14.04
2019-05-10T05:33:15.180Z,14.16
2019-05-10T05:35:43.770Z,14.12
2019-05-10T05:38:12.390Z,14.16
2019-05-10T05:40:41.067Z,14.29
2019-05-10T05:43:09.888Z,14.17
2019-05-10T05:45:38.490Z,14.33
2019-05-10T05:48:07.169Z,14.36
2019-05-10T05:50:35.639Z,14.62
2019-05-10T05:53:04.165Z,14.87
2019-05-10T05:55:32.991Z,15.01
2019-05-10T05:58:04.940Z,14.83
2019-05-10T06:00:37.668Z,14.51
2019-05-10T06:03:03.007Z,14.40
2019-05-10T06:05:34.988Z,14.50
2019-05-10T06:08:02.353Z,14.57
2019-05-10T06:10:31.130Z,14.59
2019-05-10T06:12:59.968Z,14.75
2019-05-10T06:15:31.055Z,14.84
2019-05-10T06:18:03.669Z,14.88
2019-05-10T06:20:29.935Z,15.00
2019-05-10T06:23:06.354Z,14.90
2019-05-10T06:25:39.793Z,14.90
2019-05-10T06:27:59.870Z,14.86
2019-05-10T06:30:28.481Z,14.81
2019-05-10T06:33:00.796Z,14.82
2019-05-10T06:35:27.672Z,14.77
2019-05-10T06:37:56.282Z,14.83
2019-05-10T06:40:35.624Z,14.96
2019-05-10T06:42:56.073Z,15.00
2019-05-10T06:45:25.419Z,15.04
2019-05-10T06:47:54.635Z,14.94
2019-05-10T06:50:29.802Z,14.92
2019-05-10T06:52:53.943Z,14.90
2019-05-10T06:55:22.332Z,14.88
2019-05-10T06:57:59.588Z,14.88
2019-05-10T07:00:21.188Z,15.03
2019-05-10T07:02:49.597Z,14.94
2019-05-10T07:05:18.204Z,14.95
2019-05-10T07:07:46.826Z,15.02
2019-05-10T07:10:18.929Z,15.20
2019-05-10T07:12:45.945Z,15.24
2019-05-10T07:15:14.614Z,15.19
2019-05-10T07:17:47.026Z,15.13
2019-05-10T07:20:13.571Z,15.19
2019-05-10T07:22:41.926Z,15.41
2019-05-10T07:25:10.640Z,15.78
2019-05-10T07:27:39.275Z,16.01
2019-05-10T07:30:08.383Z,15.80
2019-05-10T07:32:37.199Z,15.69
2019-05-10T07:35:06.080Z,15.57
2019-05-10T07:37:34.611Z,15.92
2019-05-10T07:40:03.897Z,16.05
2019-05-10T07:42:32.391Z,16.16
2019-05-10T07:45:01.404Z,16.41
2019-05-10T07:47:30.893Z,16.39
2019-05-10T07:50:04.018Z,16.48
2019-05-10T07:52:30.743Z,16.32
2019-05-10T07:54:59.190Z,16.49
2019-05-10T07:57:28.605Z,16.70
2019-05-10T08:00:03.056Z,16.70
2019-05-10T08:02:28.058Z,16.65
2019-05-10T08:04:58.452Z,16.66
2019-05-10T08:07:29.378Z,16.88
2019-05-10T08:09:59.468Z,16.74
2019-05-10T08:12:28.826Z,17.05
2019-05-10T08:14:59.016Z,17.10
2019-05-10T08:17:28.717Z,17.05
2019-05-10T08:19:57.461Z,17.21
2019-05-10T08:22:26.066Z,17.27
2019-05-10T08:24:56.385Z,17.20
2019-05-10T08:27:24.879Z,17.33
2019-05-10T08:30:18.049Z,17.29
2019-05-10T08:32:25.632Z,17.47
2019-05-10T08:34:55.834Z,17.22
2019-05-10T08:37:33.127Z,17.10
2019-05-10T08:39:56.055Z,17.53
2019-05-10T08:42:35.613Z,17.82
2019-05-10T08:45:03.761Z,17.86
2019-05-10T08:47:27.805Z,17.98
2019-05-10T08:50:10.503Z,17.99
2019-05-10T08:52:30.927Z,17.81
2019-05-10T08:54:57.240Z,17.96
2019-05-10T08:57:25.767Z,18.05
2019-05-10T09:00:06.562Z,18.33
2019-05-10T09:02:29.049Z,18.36
2019-05-10T09:04:55.232Z,18.16
2019-05-10T09:07:23.664Z,18.19
2019-05-10T09:09:53.098Z,18.23
2019-05-10T09:12:23.067Z,18.07
2019-05-10T09:14:57.366Z,18.38
2019-05-10T09:17:27.132Z,18.47
2019-05-10T09:19:52.889Z,18.48
2019-05-10T09:22:26.042Z,18.36
2019-05-10T09:24:53.069Z,18.39
2019-05-10T09:27:22.467Z,18.42
2019-05-10T09:29:53.069Z,18.46
2019-05-10T09:32:28.660Z,18.55
2019-05-10T09:34:54.319Z,18.56
2019-05-10T09:37:23.118Z,18.35
2019-05-10T09:39:54.868Z,18.32
2019-05-10T09:42:26.483Z,18.46
2019-05-10T09:44:52.815Z,18.65
2019-05-10T09:47:22.232Z,18.92
2019-05-10T09:49:58.508Z,18.72
2019-05-10T09:52:21.981Z,18.72
2019-05-10T09:54:50.623Z,18.57
2019-05-10T09:57:19.238Z,18.70
2019-05-10T09:59:47.843Z,18.73
2019-05-10T10:02:18.810Z,18.88
2019-05-10T10:04:47.398Z,18.91
2019-05-10T10:07:18.736Z,18.69
2019-05-10T10:09:47.757Z,18.56
2019-05-10T10:12:17.517Z,18.62
2019-05-10T10:14:47.257Z,18.70
2019-05-10T10:17:18.395Z,18.96
2019-05-10T10:19:48.068Z,19.24
2019-05-10T10:22:17.375Z,19.46
2019-05-10T10:24:49.136Z,19.34
2019-05-10T10:27:18.053Z,19.32
2019-05-10T10:29:47.443Z,19.48
2019-05-10T10:32:16.280Z,19.46
2019-05-10T10:34:44.765Z,19.63
2019-05-10T10:37:14.582Z,19.51
2019-05-10T10:39:44.280Z,19.62
2019-05-10T10:42:13.412Z,19.84
2019-05-10T10:44:42.173Z,19.79
2019-05-10T10:47:10.629Z,19.62
2019-05-10T10:49:39.233Z,19.46
2019-05-10T10:52:11.439Z,19.49
2019-05-10T10:54:39.871Z,19.67
2019-05-10T10:57:08.786Z,19.42
2019-05-10T10:59:37.587Z,19.76
2019-05-10T11:02:28.987Z,19.77
2019-05-10T11:04:40.717Z,19.79
2019-05-10T11:07:10.261Z,19.69
2019-05-10T11:09:37.406Z,19.73
2019-05-10T11:12:05.913Z,19.83
2019-05-10T11:14:39.914Z,19.92
2019-05-10T11:17:05.060Z,20.08
2019-05-10T11:19:33.555Z,20.04
2019-05-10T11:22:09.358Z,20.10
2019-05-10T11:24:32.695Z,20.16
2019-05-10T11:27:01.187Z,20.23
2019-05-10T11:29:30.816Z,20.22
2019-05-10T11:32:15.234Z,20.26
2019-05-10T11:34:37.292Z,20.26
2019-05-10T11:37:00.521Z,20.28
2019-05-10T11:39:34.780Z,20.32
2019-05-10T11:42:06.719Z,20.11
2019-05-10T11:44:31.675Z,19.99
2019-05-10T11:47:01.555Z,20.17
2019-05-10T11:49:30.865Z,20.15
2019-05-10T11:52:01.663Z,20.30
2019-05-10T11:54:31.930Z,20.38
2019-05-10T11:57:06.614Z,20.41
2019-05-10T11:59:33.750Z,20.43
2019-05-10T12:02:02.916Z,20.59
2019-05-10T12:04:38.817Z,20.63
2019-05-10T12:07:08.468Z,20.37
2019-05-10T12:09:33.718Z,20.17
2019-05-10T12:19:14.854Z,19.99
2019-05-10T12:21:33.536Z,19.93
2019-05-10T12:24:10.350Z,19.86
2019-05-10T12:27:13.340Z,19.78
2019-05-10T12:29:12.426Z,19.74
2019-05-10T12:31:34.631Z,19.78
2019-05-10T12:34:09.283Z,19.80
2019-05-10T12:36:33.844Z,19.92
2019-05-10T12:39:04.835Z,19.80
2019-05-10T12:41:33.437Z,19.79
2019-05-10T12:44:04.192Z,19.63
2019-05-10T12:46:32.744Z,19.60
2019-05-10T12:49:04.716Z,19.48
2019-05-10T12:51:32.312Z,19.59
2019-05-10T12:54:00.897Z,19.40
2019-05-10T12:56:35.022Z,19.29
2019-05-10T12:58:59.942Z,19.58
2019-05-10T13:01:31.846Z,19.62
2019-05-10T13:04:01.958Z,19.70
2019-05-10T13:06:29.741Z,19.65
2019-05-10T13:08:58.221Z,19.63
2019-05-10T13:11:27.127Z,19.69
2019-05-10T13:14:01.049Z,19.63
2019-05-10T13:16:26.806Z,19.54
2019-05-10T13:18:55.680Z,19.49
2019-05-10T13:21:24.465Z,19.36
2019-05-10T13:23:55.223Z,19.34
2019-05-10T13:26:23.882Z,19.30
2019-05-10T13:28:52.611Z,19.31
2019-05-10T13:31:21.185Z,19.02
2019-05-10T13:33:49.688Z,19.16
2019-05-10T13:36:18.314Z,19.32
2019-05-10T13:38:49.194Z,19.32
2019-05-10T13:41:23.464Z,19.50
2019-05-10T13:43:48.867Z,19.48
2019-05-10T13:46:17.554Z,19.48
2019-05-10T13:48:46.386Z,19.34
2019-05-10T13:51:14.872Z,19.57
2019-05-10T13:53:43.673Z,19.70
2019-05-10T13:56:12.163Z,19.62
2019-05-10T13:58:40.880Z,19.63
2019-05-10T14:01:13.075Z,19.50
2019-05-10T14:03:44.390Z,19.28
2019-05-10T14:06:10.945Z,19.47
2019-05-10T14:08:42.866Z,19.39
2019-05-10T14:11:09.788Z,19.59
2019-05-10T14:13:41.355Z,19.48
2019-05-10T14:16:18.344Z,19.42
2019-05-10T14:18:39.582Z,19.32
2019-05-10T14:21:08.382Z,19.25
2019-05-10T14:23:37.496Z,19.42
2019-05-10T14:26:09.330Z,19.43
2019-05-10T14:28:36.764Z,19.38
2019-05-10T14:31:05.382Z,19.32
2019-05-10T14:33:34.213Z,19.55
2019-05-10T14:36:03.403Z,19.53
2019-05-10T14:38:32.120Z,19.58
2019-05-10T14:41:03.871Z,19.38
2019-05-10T14:43:31.322Z,19.47
2019-05-10T14:46:00.230Z,19.46
2019-05-10T14:48:30.694Z,19.41
2019-05-10T14:51:03.090Z,19.49
2019-05-10T14:53:30.319Z,19.33
2019-05-10T14:55:58.911Z,19.37
2019-05-10T14:58:27.404Z,19.44
2019-05-10T15:00:56.730Z,19.49
2019-05-10T15:03:25.203Z,19.52
2019-05-10T15:05:55.621Z,19.60
2019-05-10T15:08:24.215Z,19.33
2019-05-10T15:10:52.804Z,19.20
2019-05-10T15:13:25.517Z,19.30
2019-05-10T15:15:52.390Z,19.47
2019-05-10T15:18:21.298Z,19.42
2019-05-10T15:20:49.739Z,19.15
2019-05-10T15:23:18.328Z,19.39
2019-05-10T15:25:56.377Z,19.55
2019-05-10T15:28:17.331Z,18.87
2019-05-10T15:30:51.924Z,18.84
2019-05-10T15:33:16.603Z,18.46
2019-05-10T15:35:51.242Z,18.41
2019-05-10T15:38:15.946Z,18.17
2019-05-10T15:40:45.992Z,18.45
2019-05-10T15:43:16.937Z,17.92
2019-05-10T15:45:52.189Z,18.21
2019-05-10T15:48:16.409Z,18.69
2019-05-10T15:50:45.225Z,19.12
2019-05-10T15:53:13.765Z,19.59
2019-05-10T15:55:42.409Z,19.40
2019-05-10T15:58:14.722Z,19.19
2019-05-10T16:00:43.306Z,18.90
2019-05-10T16:03:11.795Z,19.03
2019-05-10T16:05:43.812Z,18.79
2019-05-10T16:08:13.624Z,18.41
2019-05-10T16:10:41.216Z,18.65
2019-05-10T16:13:15.197Z,18.85
2019-05-10T16:15:40.219Z,18.62
2019-05-10T16:18:09.026Z,18.60
2019-05-10T16:20:39.070Z,18.69
2019-05-10T16:23:08.585Z,18.96
2019-05-10T16:25:42.028Z,18.71
2019-05-10T16:28:08.971Z,18.19
2019-05-10T16:30:37.680Z,18.27
2019-05-10T16:33:09.590Z,18.35
2019-05-10T16:35:39.118Z,18.25
2019-05-10T16:38:07.606Z,18.11
2019-05-10T16:40:36.006Z,18.13
2019-05-10T16:43:06.942Z,18.12
2019-05-10T16:45:35.969Z,18.14
2019-05-10T16:48:05.926Z,17.86
2019-05-10T16:50:34.761Z,17.78
2019-05-10T16:53:05.927Z,17.80
2019-05-10T16:55:35.578Z,17.69
2019-05-10T16:58:09.423Z,17.89
2019-05-10T17:00:35.263Z,17.68
2019-05-10T17:03:03.895Z,17.67
2019-05-10T17:05:33.206Z,17.87
2019-05-10T17:08:01.881Z,17.99
2019-05-10T17:10:33.095Z,17.56
2019-05-10T17:13:05.063Z,17.53
2019-05-10T17:15:34.053Z,17.47
2019-05-10T17:18:02.099Z,17.34
2019-05-10T17:20:31.407Z,17.15
2019-05-10T17:23:07.685Z,17.08
2019-05-10T17:25:30.648Z,17.16
2019-05-10T17:28:00.043Z,17.42
2019-05-10T17:30:29.505Z,17.56
2019-05-10T17:33:04.145Z,17.52
2019-05-10T17:35:28.801Z,17.37
2019-05-10T17:37:57.425Z,17.32
2019-05-10T17:40:25.929Z,17.16
2019-05-10T17:42:54.515Z,17.34
2019-05-10T17:45:23.140Z,17.20
2019-05-10T17:47:51.652Z,17.13
2019-05-10T17:50:20.489Z,17.24
2019-05-10T17:52:49.018Z,17.04
2019-05-10T17:55:18.512Z,17.25
2019-05-10T17:57:48.733Z,17.11
2019-05-10T18:00:18.233Z,17.19
2019-05-10T18:02:47.141Z,16.86
2019-05-10T18:05:15.849Z,17.00
2019-05-10T18:07:44.970Z,16.97
2019-05-10T18:10:13.996Z,17.14
2019-05-10T18:12:42.850Z,17.11
2019-05-10T18:15:11.447Z,17.21
2019-05-10T18:17:40.040Z,17.08
2019-05-10T18:20:09.778Z,16.98
2019-05-10T18:22:43.263Z,16.90
2019-05-10T18:25:19.519Z,16.74
2019-05-10T18:27:39.716Z,16.82
2019-05-10T18:30:09.073Z,16.75
2019-05-10T18:32:37.641Z,16.48
2019-05-10T18:37:37.556Z,16.53
2019-05-10T18:40:07.004Z,16.95
2019-05-10T18:42:35.655Z,17.07
2019-05-10T18:45:04.840Z,17.00
2019-05-10T18:47:33.374Z,16.66
2019-05-10T18:50:01.902Z,16.48
2019-05-10T18:52:30.903Z,16.32
2019-05-10T18:54:59.612Z,16.51
2019-05-10T18:57:28.213Z,16.49
2019-05-10T18:59:56.722Z,16.68
2019-05-10T19:02:25.221Z,16.78
2019-05-10T19:04:54.310Z,16.89
2019-05-10T19:07:23.066Z,16.74
2019-05-10T19:09:51.806Z,16.49
2019-05-10T19:12:22.495Z,16.22
2019-05-10T19:14:51.067Z,16.31
2019-05-10T19:17:19.697Z,16.71
2019-05-10T19:19:48.623Z,16.45
2019-05-10T19:22:17.695Z,16.62
2019-05-10T19:24:46.756Z,16.62
2019-05-10T19:27:15.365Z,16.43
2019-05-10T19:29:47.627Z,16.67
2019-05-10T19:32:18.315Z,16.62
2019-05-10T19:34:48.351Z,16.65
2019-05-10T19:37:29.675Z,16.64
2019-05-10T19:39:47.239Z,16.44
2019-05-10T19:42:17.050Z,16.26
2019-05-10T19:44:45.628Z,16.04
2019-05-10T19:47:17.784Z,16.47
2019-05-10T19:49:45.969Z,16.37
2019-05-10T19:52:21.276Z,16.51
2019-05-10T19:54:46.238Z,16.44
2019-05-10T19:57:18.553Z,16.47
2019-05-10T19:59:48.920Z,16.26
2019-05-10T20:02:15.667Z,15.89
2019-05-10T20:04:44.414Z,16.19
2019-05-10T20:07:12.918Z,16.14
2019-05-10T20:09:41.454Z,16.37
2019-05-10T20:12:10.471Z,16.43
2019-05-10T20:14:39.037Z,16.54
2019-05-10T20:17:07.659Z,16.38
2019-05-10T20:19:36.305Z,16.44
2019-05-10T20:22:04.931Z,16.51
2019-05-10T20:24:33.560Z,16.26
2019-05-10T20:27:02.231Z,16.08
2019-05-10T20:29:31.093Z,16.32
2019-05-10T20:31:59.915Z,16.32
2019-05-10T20:34:29.916Z,16.23
2019-05-10T20:36:58.435Z,16.06
2019-05-10T20:39:26.849Z,16.21
2019-05-10T20:41:57.913Z,16.15
2019-05-10T20:44:30.642Z,15.86
2019-05-10T20:46:59.229Z,15.91
2019-05-10T20:49:30.289Z,16.10
2019-05-10T20:51:58.946Z,16.02
2019-05-10T20:54:27.617Z,15.67
2019-05-10T20:56:56.385Z,15.99
2019-05-10T20:59:25.003Z,15.92
2019-05-10T21:01:53.752Z,15.53
2019-05-10T21:04:24.977Z,15.45
2019-05-10T21:06:53.604Z,15.67
2019-05-10T21:09:22.101Z,15.84
2019-05-10T21:11:51.205Z,15.74
2019-05-10T21:14:23.092Z,15.94
2019-05-10T21:16:54.556Z,15.94
2019-05-10T21:19:23.195Z,15.68
2019-05-10T21:22:01.589Z,15.67
2019-05-10T21:24:30.211Z,15.48
2019-05-10T21:26:58.768Z,15.56
2019-05-10T21:29:27.265Z,15.58
2019-05-10T21:31:55.844Z,15.30
2019-05-10T21:34:24.428Z,15.42
2019-05-10T21:36:53.053Z,15.54
2019-05-10T21:39:21.616Z,15.29
2019-05-10T21:41:50.225Z,15.46
2019-05-10T21:44:18.691Z,15.15
2019-05-10T21:46:47.383Z,15.18
2019-05-10T21:49:15.863Z,15.34
2019-05-10T21:51:44.441Z,15.43
2019-05-10T21:54:13.003Z,15.51
2019-05-10T21:56:41.584Z,15.25
2019-05-10T21:59:09.967Z,15.56
2019-05-10T22:01:38.453Z,15.74
2019-05-10T22:04:06.928Z,15.78
2019-05-10T22:06:35.474Z,15.55
2019-05-10T22:09:05.697Z,15.76
2019-05-10T22:11:34.291Z,15.63
2019-05-10T22:14:02.959Z,15.59
2019-05-10T22:16:31.692Z,15.50
2019-05-10T22:19:01.688Z,15.61
2019-05-10T22:21:30.179Z,15.64
2019-05-10T22:23:58.688Z,15.21
2019-05-10T22:26:27.193Z,15.32
2019-05-10T22:28:55.792Z,15.23
2019-05-10T22:31:24.269Z,15.15
2019-05-10T22:33:52.857Z,15.25
2019-05-10T22:36:21.443Z,15.19
2019-05-10T22:39:05.807Z,15.14
2019-05-10T22:41:20.511Z,15.33
2019-05-10T22:43:49.104Z,15.12
2019-05-10T22:46:17.655Z,15.21
2019-05-10T22:48:46.143Z,15.19
2019-05-10T22:51:14.765Z,15.37
2019-05-10T22:53:43.369Z,15.20
2019-05-10T22:56:11.843Z,15.33
2019-05-10T22:58:40.343Z,15.19
2019-05-10T23:01:08.795Z,15.20
2019-05-10T23:03:37.286Z,15.12
2019-05-10T23:06:05.764Z,15.12
2019-05-10T23:08:34.258Z,15.20
2019-05-10T23:11:02.819Z,14.82
2019-05-10T23:13:31.310Z,14.97
2019-05-10T23:15:59.832Z,15.09
2019-05-10T23:18:28.430Z,15.12
2019-05-10T23:20:56.906Z,15.19
2019-05-10T23:23:25.506Z,15.14
2019-05-10T23:25:54.013Z,15.11
2019-05-10T23:28:22.565Z,15.27
2019-05-10T23:30:51.177Z,15.25
2019-05-10T23:33:19.760Z,15.16
2019-05-10T23:35:48.393Z,15.11
2019-05-10T23:38:16.863Z,15.20
2019-05-10T23:40:45.454Z,15.03
2019-05-10T23:43:14.058Z,15.06
2019-05-10T23:45:42.452Z,15.04
2019-05-10T23:48:11.049Z,15.06
2019-05-10T23:50:39.555Z,15.04
2019-05-10T23:53:08.062Z,14.86
2019-05-10T23:55:36.665Z,14.90
2019-05-10T23:58:05.285Z,14.95
